sensor_id;sensor_type;location;lat;lon;timestamp;P1;durP1;ratioP1;P2;durP2;ratioP2
12554;SDS011;6343;50.868;4.700;2024-02-26T00:00:43;1.70;;;1.17;;
12554;SDS011;6343;50.868;4.700;2024-02-26T00:03:09;2.33;;;1.40;;
12554;SDS011;6343;50.868;4.700;2024-02-26T00:05:35;3.63;;;1.17;;
12554;SDS011;6343;50.868;4.700;2024-02-26T00:08:03;3.43;;;1.20;;
12554;SDS011;6343;50.868;4.700;2024-02-26T00:10:29;5.83;;;1.20;;
12554;SDS011;6343;50.868;4.700;2024-02-26T00:12:55;1.57;;;1.13;;
12554;SDS011;6343;50.868;4.700;2024-02-26T00:15:21;1.50;;;1.10;;
12554;SDS011;6343;50.868;4.700;2024-02-26T00:17:47;2.20;;;1.20;;
12554;SDS011;6343;50.868;4.700;2024-02-26T00:20:14;1.63;;;1.20;;
12554;SDS011;6343;50.868;4.700;2024-02-26T00:22:40;2.80;;;1.30;;
12554;SDS011;6343;50.868;4.700;2024-02-26T00:25:06;2.70;;;1.20;;
12554;SDS011;6343;50.868;4.700;2024-02-26T00:27:32;2.27;;;1.00;;
12554;SDS011;6343;50.868;4.700;2024-02-26T00:29:58;2.20;;;1.20;;
12554;SDS011;6343;50.868;4.700;2024-02-26T00:32:24;3.90;;;1.33;;
12554;SDS011;6343;50.868;4.700;2024-02-26T00:34:50;1.57;;;1.10;;
12554;SDS011;6343;50.868;4.700;2024-02-26T00:37:17;5.00;;;1.20;;
12554;SDS011;6343;50.868;4.700;2024-02-26T00:39:43;2.30;;;1.37;;
12554;SDS011;6343;50.868;4.700;2024-02-26T00:42:09;2.73;;;1.47;;
12554;SDS011;6343;50.868;4.700;2024-02-26T00:44:35;2.17;;;1.20;;
12554;SDS011;6343;50.868;4.700;2024-02-26T00:47:01;3.17;;;1.40;;
12554;SDS011;6343;50.868;4.700;2024-02-26T00:49:27;1.43;;;1.00;;
12554;SDS011;6343;50.868;4.700;2024-02-26T00:51:54;3.50;;;1.47;;
12554;SDS011;6343;50.868;4.700;2024-02-26T00:54:20;2.70;;;1.30;;
12554;SDS011;6343;50.868;4.700;2024-02-26T00:56:46;1.20;;;1.00;;
12554;SDS011;6343;50.868;4.700;2024-02-26T00:59:12;1.70;;;1.20;;
12554;SDS011;6343;50.868;4.700;2024-02-26T01:01:39;1.63;;;0.93;;
12554;SDS011;6343;50.868;4.700;2024-02-26T01:04:05;1.37;;;1.20;;
12554;SDS011;6343;50.868;4.700;2024-02-26T01:06:31;2.67;;;1.37;;
12554;SDS011;6343;50.868;4.700;2024-02-26T01:08:57;5.43;;;1.40;;
12554;SDS011;6343;50.868;4.700;2024-02-26T01:11:23;1.80;;;1.10;;
12554;SDS011;6343;50.868;4.700;2024-02-26T01:13:49;7.57;;;1.27;;
12554;SDS011;6343;50.868;4.700;2024-02-26T01:16:21;2.67;;;1.20;;
12554;SDS011;6343;50.868;4.700;2024-02-26T01:18:47;1.73;;;1.00;;
12554;SDS011;6343;50.868;4.700;2024-02-26T01:21:13;2.03;;;1.10;;
12554;SDS011;6343;50.868;4.700;2024-02-26T01:23:39;1.03;;;0.93;;
12554;SDS011;6343;50.868;4.700;2024-02-26T01:26:05;3.87;;;1.00;;
12554;SDS011;6343;50.868;4.700;2024-02-26T01:28:31;1.87;;;1.20;;
12554;SDS011;6343;50.868;4.700;2024-02-26T01:30:57;2.50;;;1.00;;
12554;SDS011;6343;50.868;4.700;2024-02-26T01:33:25;1.40;;;1.00;;
12554;SDS011;6343;50.868;4.700;2024-02-26T01:35:51;2.00;;;1.23;;
12554;SDS011;6343;50.868;4.700;2024-02-26T01:38:18;3.70;;;1.37;;
12554;SDS011;6343;50.868;4.700;2024-02-26T01:40:44;1.40;;;1.10;;
12554;SDS011;6343;50.868;4.700;2024-02-26T01:43:10;2.30;;;1.50;;
12554;SDS011;6343;50.868;4.700;2024-02-26T01:45:36;1.13;;;0.80;;
12554;SDS011;6343;50.868;4.700;2024-02-26T01:48:02;1.20;;;1.10;;
12554;SDS011;6343;50.868;4.700;2024-02-26T01:50:28;1.50;;;1.10;;
12554;SDS011;6343;50.868;4.700;2024-02-26T01:52:55;3.57;;;1.10;;
12554;SDS011;6343;50.868;4.700;2024-02-26T01:55:22;3.80;;;1.13;;
12554;SDS011;6343;50.868;4.700;2024-02-26T01:57:48;3.90;;;1.20;;
12554;SDS011;6343;50.868;4.700;2024-02-26T02:00:16;1.63;;;1.23;;
12554;SDS011;6343;50.868;4.700;2024-02-26T02:02:43;2.03;;;1.00;;
12554;SDS011;6343;50.868;4.700;2024-02-26T02:05:11;4.43;;;1.00;;
12554;SDS011;6343;50.868;4.700;2024-02-26T02:07:38;1.60;;;1.00;;
12554;SDS011;6343;50.868;4.700;2024-02-26T02:10:04;2.03;;;0.90;;
12554;SDS011;6343;50.868;4.700;2024-02-26T02:12:31;2.13;;;1.10;;
12554;SDS011;6343;50.868;4.700;2024-02-26T02:14:59;0.83;;;0.80;;
12554;SDS011;6343;50.868;4.700;2024-02-26T02:17:25;0.90;;;0.80;;
12554;SDS011;6343;50.868;4.700;2024-02-26T02:19:52;0.80;;;0.80;;
12554;SDS011;6343;50.868;4.700;2024-02-26T02:22:18;4.20;;;1.20;;
12554;SDS011;6343;50.868;4.700;2024-02-26T02:24:45;2.33;;;1.13;;
12554;SDS011;6343;50.868;4.700;2024-02-26T02:27:11;3.23;;;1.07;;
12554;SDS011;6343;50.868;4.700;2024-02-26T02:29:37;1.67;;;1.00;;
12554;SDS011;6343;50.868;4.700;2024-02-26T02:32:04;2.73;;;1.20;;
12554;SDS011;6343;50.868;4.700;2024-02-26T02:34:31;2.73;;;1.13;;
12554;SDS011;6343;50.868;4.700;2024-02-26T02:36:57;1.43;;;1.00;;
12554;SDS011;6343;50.868;4.700;2024-02-26T02:39:24;2.37;;;1.23;;
12554;SDS011;6343;50.868;4.700;2024-02-26T02:41:50;4.97;;;1.37;;
12554;SDS011;6343;50.868;4.700;2024-02-26T02:44:16;3.30;;;1.07;;
12554;SDS011;6343;50.868;4.700;2024-02-26T02:46:42;1.33;;;0.90;;
12554;SDS011;6343;50.868;4.700;2024-02-26T02:49:09;1.17;;;0.90;;
12554;SDS011;6343;50.868;4.700;2024-02-26T02:51:39;2.53;;;1.30;;
12554;SDS011;6343;50.868;4.700;2024-02-26T02:54:05;1.90;;;1.20;;
12554;SDS011;6343;50.868;4.700;2024-02-26T02:56:31;1.20;;;0.90;;
12554;SDS011;6343;50.868;4.700;2024-02-26T02:58:57;3.07;;;1.10;;
12554;SDS011;6343;50.868;4.700;2024-02-26T03:01:23;1.83;;;1.10;;
12554;SDS011;6343;50.868;4.700;2024-02-26T03:03:49;1.57;;;1.07;;
12554;SDS011;6343;50.868;4.700;2024-02-26T03:06:16;2.87;;;1.30;;
12554;SDS011;6343;50.868;4.700;2024-02-26T03:08:42;2.43;;;1.10;;
12554;SDS011;6343;50.868;4.700;2024-02-26T03:11:12;3.50;;;1.23;;
12554;SDS011;6343;50.868;4.700;2024-02-26T03:13:38;1.70;;;1.00;;
12554;SDS011;6343;50.868;4.700;2024-02-26T03:16:05;1.80;;;0.93;;
12554;SDS011;6343;50.868;4.700;2024-02-26T03:18:31;2.30;;;0.90;;
12554;SDS011;6343;50.868;4.700;2024-02-26T03:20:57;6.37;;;1.30;;
12554;SDS011;6343;50.868;4.700;2024-02-26T03:23:23;1.93;;;0.90;;
12554;SDS011;6343;50.868;4.700;2024-02-26T03:25:49;1.53;;;1.20;;
12554;SDS011;6343;50.868;4.700;2024-02-26T03:28:16;1.80;;;0.80;;
12554;SDS011;6343;50.868;4.700;2024-02-26T03:30:42;1.60;;;0.90;;
12554;SDS011;6343;50.868;4.700;2024-02-26T03:33:08;4.63;;;1.07;;
12554;SDS011;6343;50.868;4.700;2024-02-26T03:35:34;2.43;;;0.93;;
12554;SDS011;6343;50.868;4.700;2024-02-26T03:38:01;1.47;;;1.00;;
12554;SDS011;6343;50.868;4.700;2024-02-26T03:40:27;2.50;;;1.20;;
12554;SDS011;6343;50.868;4.700;2024-02-26T03:42:54;3.13;;;1.20;;
12554;SDS011;6343;50.868;4.700;2024-02-26T03:45:22;1.40;;;1.13;;
12554;SDS011;6343;50.868;4.700;2024-02-26T03:47:48;3.73;;;1.20;;
12554;SDS011;6343;50.868;4.700;2024-02-26T03:50:14;1.40;;;1.07;;
12554;SDS011;6343;50.868;4.700;2024-02-26T03:52:41;2.13;;;1.30;;
12554;SDS011;6343;50.868;4.700;2024-02-26T03:55:07;1.70;;;1.20;;
12554;SDS011;6343;50.868;4.700;2024-02-26T03:57:35;2.90;;;1.20;;
12554;SDS011;6343;50.868;4.700;2024-02-26T04:00:02;2.50;;;1.20;;
12554;SDS011;6343;50.868;4.700;2024-02-26T04:02:28;2.07;;;1.17;;
12554;SDS011;6343;50.868;4.700;2024-02-26T04:04:54;1.50;;;1.10;;
12554;SDS011;6343;50.868;4.700;2024-02-26T04:07:20;1.10;;;0.90;;
12554;SDS011;6343;50.868;4.700;2024-02-26T04:09:46;1.70;;;1.40;;
12554;SDS011;6343;50.868;4.700;2024-02-26T04:12:12;2.03;;;1.27;;
12554;SDS011;6343;50.868;4.700;2024-02-26T04:14:39;1.80;;;1.20;;
12554;SDS011;6343;50.868;4.700;2024-02-26T04:17:05;1.57;;;1.40;;
12554;SDS011;6343;50.868;4.700;2024-02-26T04:19:31;2.27;;;1.67;;
12554;SDS011;6343;50.868;4.700;2024-02-26T04:21:57;1.77;;;1.30;;
12554;SDS011;6343;50.868;4.700;2024-02-26T04:24:23;1.67;;;1.33;;
12554;SDS011;6343;50.868;4.700;2024-02-26T04:26:49;1.83;;;1.57;;
12554;SDS011;6343;50.868;4.700;2024-02-26T04:29:16;1.70;;;1.40;;
12554;SDS011;6343;50.868;4.700;2024-02-26T04:31:42;2.00;;;1.70;;
12554;SDS011;6343;50.868;4.700;2024-02-26T04:34:08;2.83;;;1.60;;
12554;SDS011;6343;50.868;4.700;2024-02-26T04:36:34;1.73;;;1.47;;
12554;SDS011;6343;50.868;4.700;2024-02-26T04:39:00;4.13;;;1.80;;
12554;SDS011;6343;50.868;4.700;2024-02-26T04:41:26;1.90;;;1.60;;
12554;SDS011;6343;50.868;4.700;2024-02-26T04:43:52;2.60;;;1.60;;
12554;SDS011;6343;50.868;4.700;2024-02-26T04:46:18;4.30;;;1.63;;
12554;SDS011;6343;50.868;4.700;2024-02-26T04:48:47;3.30;;;1.90;;
12554;SDS011;6343;50.868;4.700;2024-02-26T04:51:13;2.60;;;1.77;;
12554;SDS011;6343;50.868;4.700;2024-02-26T04:53:39;2.80;;;1.90;;
12554;SDS011;6343;50.868;4.700;2024-02-26T04:56:05;2.70;;;2.23;;
12554;SDS011;6343;50.868;4.700;2024-02-26T04:58:31;3.17;;;2.20;;
12554;SDS011;6343;50.868;4.700;2024-02-26T05:00:57;3.03;;;2.20;;
12554;SDS011;6343;50.868;4.700;2024-02-26T05:03:23;2.90;;;2.60;;
12554;SDS011;6343;50.868;4.700;2024-02-26T05:05:50;2.73;;;2.30;;
12554;SDS011;6343;50.868;4.700;2024-02-26T05:08:16;4.13;;;2.60;;
12554;SDS011;6343;50.868;4.700;2024-02-26T05:10:42;3.57;;;2.70;;
12554;SDS011;6343;50.868;4.700;2024-02-26T05:13:08;3.30;;;2.50;;
12554;SDS011;6343;50.868;4.700;2024-02-26T05:15:35;5.30;;;2.60;;
12554;SDS011;6343;50.868;4.700;2024-02-26T05:18:01;7.13;;;3.27;;
12554;SDS011;6343;50.868;4.700;2024-02-26T05:20:28;3.50;;;3.10;;
12554;SDS011;6343;50.868;4.700;2024-02-26T05:22:54;5.50;;;3.03;;
12554;SDS011;6343;50.868;4.700;2024-02-26T05:25:20;4.37;;;3.30;;
12554;SDS011;6343;50.868;4.700;2024-02-26T05:27:46;4.53;;;3.20;;
12554;SDS011;6343;50.868;4.700;2024-02-26T05:30:12;3.63;;;2.80;;
12554;SDS011;6343;50.868;4.700;2024-02-26T05:32:38;5.07;;;3.10;;
12554;SDS011;6343;50.868;4.700;2024-02-26T05:35:04;4.97;;;3.50;;
12554;SDS011;6343;50.868;4.700;2024-02-26T05:37:31;4.63;;;3.40;;
12554;SDS011;6343;50.868;4.700;2024-02-26T05:39:57;4.27;;;3.40;;
12554;SDS011;6343;50.868;4.700;2024-02-26T05:42:23;6.03;;;3.67;;
12554;SDS011;6343;50.868;4.700;2024-02-26T05:44:49;4.00;;;3.53;;
12554;SDS011;6343;50.868;4.700;2024-02-26T05:47:15;4.97;;;3.40;;
12554;SDS011;6343;50.868;4.700;2024-02-26T05:49:42;8.77;;;3.80;;
12554;SDS011;6343;50.868;4.700;2024-02-26T05:52:08;4.23;;;3.63;;
12554;SDS011;6343;50.868;4.700;2024-02-26T05:54:34;4.93;;;4.00;;
12554;SDS011;6343;50.868;4.700;2024-02-26T05:57:01;5.87;;;3.80;;
12554;SDS011;6343;50.868;4.700;2024-02-26T05:59:27;6.03;;;3.87;;
12554;SDS011;6343;50.868;4.700;2024-02-26T06:01:53;5.33;;;4.10;;
12554;SDS011;6343;50.868;4.700;2024-02-26T06:04:19;7.03;;;4.17;;
12554;SDS011;6343;50.868;4.700;2024-02-26T06:06:45;4.70;;;4.07;;
12554;SDS011;6343;50.868;4.700;2024-02-26T06:09:11;8.03;;;4.27;;
12554;SDS011;6343;50.868;4.700;2024-02-26T06:11:37;5.83;;;4.23;;
12554;SDS011;6343;50.868;4.700;2024-02-26T06:14:03;7.07;;;5.00;;
12554;SDS011;6343;50.868;4.700;2024-02-26T06:16:30;6.40;;;4.90;;
12554;SDS011;6343;50.868;4.700;2024-02-26T06:18:56;5.47;;;4.73;;
12554;SDS011;6343;50.868;4.700;2024-02-26T06:21:23;6.40;;;5.00;;
12554;SDS011;6343;50.868;4.700;2024-02-26T06:23:49;5.43;;;4.70;;
12554;SDS011;6343;50.868;4.700;2024-02-26T06:26:15;6.10;;;5.40;;
12554;SDS011;6343;50.868;4.700;2024-02-26T06:28:41;8.33;;;5.67;;
12554;SDS011;6343;50.868;4.700;2024-02-26T06:31:07;7.67;;;5.17;;
12554;SDS011;6343;50.868;4.700;2024-02-26T06:33:34;7.20;;;5.90;;
12554;SDS011;6343;50.868;4.700;2024-02-26T06:36:00;7.90;;;5.43;;
12554;SDS011;6343;50.868;4.700;2024-02-26T06:38:26;9.87;;;6.00;;
12554;SDS011;6343;50.868;4.700;2024-02-26T06:40:52;6.97;;;5.47;;
12554;SDS011;6343;50.868;4.700;2024-02-26T06:43:18;6.77;;;6.07;;
12554;SDS011;6343;50.868;4.700;2024-02-26T06:45:44;8.90;;;6.17;;
12554;SDS011;6343;50.868;4.700;2024-02-26T06:48:10;8.37;;;6.53;;
12554;SDS011;6343;50.868;4.700;2024-02-26T06:50:36;8.07;;;6.63;;
12554;SDS011;6343;50.868;4.700;2024-02-26T06:53:02;8.63;;;6.03;;
12554;SDS011;6343;50.868;4.700;2024-02-26T06:55:29;7.70;;;6.27;;
12554;SDS011;6343;50.868;4.700;2024-02-26T06:57:55;9.37;;;6.43;;
12554;SDS011;6343;50.868;4.700;2024-02-26T07:00:21;7.33;;;6.40;;
12554;SDS011;6343;50.868;4.700;2024-02-26T07:02:47;7.70;;;6.83;;
12554;SDS011;6343;50.868;4.700;2024-02-26T07:05:13;7.00;;;6.27;;
12554;SDS011;6343;50.868;4.700;2024-02-26T07:07:39;7.00;;;6.20;;
12554;SDS011;6343;50.868;4.700;2024-02-26T07:10:06;9.30;;;7.40;;
12554;SDS011;6343;50.868;4.700;2024-02-26T07:12:32;8.03;;;6.73;;
12554;SDS011;6343;50.868;4.700;2024-02-26T07:15:00;6.63;;;5.63;;
12554;SDS011;6343;50.868;4.700;2024-02-26T07:17:27;6.70;;;6.00;;
12554;SDS011;6343;50.868;4.700;2024-02-26T07:19:54;6.83;;;5.90;;
12554;SDS011;6343;50.868;4.700;2024-02-26T07:22:20;6.63;;;5.93;;
12554;SDS011;6343;50.868;4.700;2024-02-26T07:24:46;7.07;;;6.13;;
12554;SDS011;6343;50.868;4.700;2024-02-26T07:27:12;6.67;;;5.97;;
12554;SDS011;6343;50.868;4.700;2024-02-26T07:29:38;6.57;;;5.83;;
12554;SDS011;6343;50.868;4.700;2024-02-26T07:32:05;8.17;;;5.87;;
12554;SDS011;6343;50.868;4.700;2024-02-26T07:34:31;9.03;;;6.43;;
12554;SDS011;6343;50.868;4.700;2024-02-26T07:36:57;7.40;;;5.80;;
12554;SDS011;6343;50.868;4.700;2024-02-26T07:39:23;7.07;;;5.80;;
12554;SDS011;6343;50.868;4.700;2024-02-26T07:41:50;6.90;;;6.20;;
12554;SDS011;6343;50.868;4.700;2024-02-26T07:44:17;7.90;;;5.97;;
12554;SDS011;6343;50.868;4.700;2024-02-26T07:46:43;6.13;;;5.53;;
12554;SDS011;6343;50.868;4.700;2024-02-26T07:49:10;8.13;;;5.30;;
12554;SDS011;6343;50.868;4.700;2024-02-26T07:51:36;7.37;;;5.67;;
12554;SDS011;6343;50.868;4.700;2024-02-26T07:54:02;6.93;;;5.90;;
12554;SDS011;6343;50.868;4.700;2024-02-26T07:56:28;6.27;;;5.60;;
12554;SDS011;6343;50.868;4.700;2024-02-26T07:58:54;6.57;;;5.60;;
12554;SDS011;6343;50.868;4.700;2024-02-26T08:01:20;5.83;;;5.23;;
12554;SDS011;6343;50.868;4.700;2024-02-26T08:03:46;6.93;;;5.60;;
12554;SDS011;6343;50.868;4.700;2024-02-26T08:06:12;6.10;;;5.50;;
12554;SDS011;6343;50.868;4.700;2024-02-26T08:08:38;8.43;;;5.20;;
12554;SDS011;6343;50.868;4.700;2024-02-26T08:11:04;7.10;;;5.30;;
12554;SDS011;6343;50.868;4.700;2024-02-26T08:13:31;6.17;;;4.97;;
12554;SDS011;6343;50.868;4.700;2024-02-26T08:15:57;6.10;;;5.50;;
12554;SDS011;6343;50.868;4.700;2024-02-26T08:18:24;8.60;;;5.47;;
12554;SDS011;6343;50.868;4.700;2024-02-26T08:20:50;5.67;;;5.13;;
12554;SDS011;6343;50.868;4.700;2024-02-26T08:23:17;7.80;;;5.70;;
12554;SDS011;6343;50.868;4.700;2024-02-26T08:25:43;6.20;;;5.60;;
12554;SDS011;6343;50.868;4.700;2024-02-26T08:28:09;6.13;;;5.40;;
12554;SDS011;6343;50.868;4.700;2024-02-26T08:30:39;5.80;;;5.20;;
12554;SDS011;6343;50.868;4.700;2024-02-26T08:33:05;5.70;;;5.10;;
12554;SDS011;6343;50.868;4.700;2024-02-26T08:35:31;6.43;;;5.57;;
12554;SDS011;6343;50.868;4.700;2024-02-26T08:37:58;6.77;;;4.50;;
12554;SDS011;6343;50.868;4.700;2024-02-26T08:40:24;6.50;;;5.37;;
12554;SDS011;6343;50.868;4.700;2024-02-26T08:42:50;5.27;;;4.77;;
12554;SDS011;6343;50.868;4.700;2024-02-26T08:45:16;5.40;;;4.90;;
12554;SDS011;6343;50.868;4.700;2024-02-26T08:47:44;6.00;;;5.33;;
12554;SDS011;6343;50.868;4.700;2024-02-26T08:50:10;6.17;;;5.00;;
12554;SDS011;6343;50.868;4.700;2024-02-26T08:52:37;6.77;;;4.87;;
12554;SDS011;6343;50.868;4.700;2024-02-26T08:55:04;9.83;;;6.80;;
12554;SDS011;6343;50.868;4.700;2024-02-26T08:57:31;7.17;;;5.83;;
12554;SDS011;6343;50.868;4.700;2024-02-26T09:00:00;5.80;;;5.30;;
12554;SDS011;6343;50.868;4.700;2024-02-26T09:02:27;5.53;;;5.03;;
12554;SDS011;6343;50.868;4.700;2024-02-26T09:04:53;5.77;;;5.17;;
12554;SDS011;6343;50.868;4.700;2024-02-26T09:07:20;5.43;;;4.90;;
12554;SDS011;6343;50.868;4.700;2024-02-26T09:09:47;6.10;;;5.50;;
12554;SDS011;6343;50.868;4.700;2024-02-26T09:12:13;5.83;;;5.27;;
12554;SDS011;6343;50.868;4.700;2024-02-26T09:14:39;7.27;;;5.50;;
12554;SDS011;6343;50.868;4.700;2024-02-26T09:17:05;6.57;;;5.47;;
12554;SDS011;6343;50.868;4.700;2024-02-26T09:19:32;6.60;;;5.40;;
12554;SDS011;6343;50.868;4.700;2024-02-26T09:21:58;6.23;;;5.63;;
12554;SDS011;6343;50.868;4.700;2024-02-26T09:24:26;6.33;;;5.70;;
12554;SDS011;6343;50.868;4.700;2024-02-26T09:26:52;6.60;;;5.63;;
12554;SDS011;6343;50.868;4.700;2024-02-26T09:29:18;6.20;;;5.60;;
12554;SDS011;6343;50.868;4.700;2024-02-26T09:31:44;7.83;;;6.13;;
12554;SDS011;6343;50.868;4.700;2024-02-26T09:34:12;10.93;;;5.37;;
12554;SDS011;6343;50.868;4.700;2024-02-26T09:36:39;8.33;;;5.40;;
12554;SDS011;6343;50.868;4.700;2024-02-26T09:39:05;7.47;;;5.80;;
12554;SDS011;6343;50.868;4.700;2024-02-26T09:41:33;8.03;;;6.00;;
12554;SDS011;6343;50.868;4.700;2024-02-26T09:43:59;6.93;;;5.50;;
12554;SDS011;6343;50.868;4.700;2024-02-26T09:46:28;7.73;;;5.40;;
12554;SDS011;6343;50.868;4.700;2024-02-26T09:48:54;6.43;;;4.50;;
12554;SDS011;6343;50.868;4.700;2024-02-26T09:51:22;8.57;;;4.97;;
12554;SDS011;6343;50.868;4.700;2024-02-26T09:53:51;7.07;;;5.50;;
12554;SDS011;6343;50.868;4.700;2024-02-26T09:56:18;9.37;;;4.77;;
12554;SDS011;6343;50.868;4.700;2024-02-26T09:58:44;7.70;;;5.07;;
12554;SDS011;6343;50.868;4.700;2024-02-26T10:01:17;5.43;;;4.60;;
12554;SDS011;6343;50.868;4.700;2024-02-26T10:03:44;5.33;;;4.13;;
12554;SDS011;6343;50.868;4.700;2024-02-26T10:06:10;5.30;;;4.67;;
12554;SDS011;6343;50.868;4.700;2024-02-26T10:08:36;5.20;;;4.17;;
12554;SDS011;6343;50.868;4.700;2024-02-26T10:11:09;6.40;;;4.87;;
12554;SDS011;6343;50.868;4.700;2024-02-26T10:13:36;5.70;;;4.70;;
12554;SDS011;6343;50.868;4.700;2024-02-26T10:16:02;6.23;;;4.70;;
12554;SDS011;6343;50.868;4.700;2024-02-26T10:18:48;8.17;;;5.27;;
12554;SDS011;6343;50.868;4.700;2024-02-26T10:21:15;5.33;;;4.80;;
12554;SDS011;6343;50.868;4.700;2024-02-26T10:23:43;6.43;;;4.83;;
12554;SDS011;6343;50.868;4.700;2024-02-26T10:26:10;5.20;;;4.67;;
12554;SDS011;6343;50.868;4.700;2024-02-26T10:28:37;5.13;;;4.50;;
12554;SDS011;6343;50.868;4.700;2024-02-26T10:31:03;4.97;;;4.43;;
12554;SDS011;6343;50.868;4.700;2024-02-26T10:33:29;5.17;;;4.67;;
12554;SDS011;6343;50.868;4.700;2024-02-26T10:35:56;5.03;;;4.50;;
12554;SDS011;6343;50.868;4.700;2024-02-26T10:38:22;4.93;;;4.43;;
12554;SDS011;6343;50.868;4.700;2024-02-26T10:40:49;5.53;;;4.93;;
12554;SDS011;6343;50.868;4.700;2024-02-26T10:43:15;5.90;;;4.70;;
12554;SDS011;6343;50.868;4.700;2024-02-26T10:45:42;4.70;;;4.30;;
12554;SDS011;6343;50.868;4.700;2024-02-26T10:48:10;5.10;;;4.40;;
12554;SDS011;6343;50.868;4.700;2024-02-26T10:50:37;5.83;;;4.43;;
12554;SDS011;6343;50.868;4.700;2024-02-26T10:53:05;5.00;;;4.50;;
12554;SDS011;6343;50.868;4.700;2024-02-26T10:55:32;6.27;;;4.77;;
12554;SDS011;6343;50.868;4.700;2024-02-26T10:58:00;4.73;;;4.23;;
12554;SDS011;6343;50.868;4.700;2024-02-26T11:00:27;4.67;;;4.27;;
12554;SDS011;6343;50.868;4.700;2024-02-26T11:02:54;4.77;;;3.87;;
12554;SDS011;6343;50.868;4.700;2024-02-26T11:05:23;6.63;;;4.67;;
12554;SDS011;6343;50.868;4.700;2024-02-26T11:07:49;5.47;;;4.10;;
12554;SDS011;6343;50.868;4.700;2024-02-26T11:10:16;5.73;;;4.23;;
12554;SDS011;6343;50.868;4.700;2024-02-26T11:12:42;5.37;;;3.83;;
12554;SDS011;6343;50.868;4.700;2024-02-26T11:15:09;3.90;;;3.50;;
12554;SDS011;6343;50.868;4.700;2024-02-26T11:17:35;3.83;;;3.43;;
12554;SDS011;6343;50.868;4.700;2024-02-26T11:20:03;3.97;;;3.57;;
12554;SDS011;6343;50.868;4.700;2024-02-26T11:22:30;3.77;;;3.03;;
12554;SDS011;6343;50.868;4.700;2024-02-26T11:24:57;3.90;;;3.43;;
12554;SDS011;6343;50.868;4.700;2024-02-26T11:27:30;4.13;;;3.73;;
12554;SDS011;6343;50.868;4.700;2024-02-26T11:29:57;3.60;;;3.20;;
12554;SDS011;6343;50.868;4.700;2024-02-26T11:32:27;3.37;;;3.07;;
12554;SDS011;6343;50.868;4.700;2024-02-26T11:34:57;3.50;;;3.10;;
12554;SDS011;6343;50.868;4.700;2024-02-26T11:37:27;3.87;;;3.47;;
12554;SDS011;6343;50.868;4.700;2024-02-26T11:39:53;5.53;;;3.20;;
12554;SDS011;6343;50.868;4.700;2024-02-26T11:42:22;5.53;;;3.67;;
12554;SDS011;6343;50.868;4.700;2024-02-26T11:44:50;3.90;;;3.50;;
12554;SDS011;6343;50.868;4.700;2024-02-26T11:47:20;4.50;;;3.10;;
12554;SDS011;6343;50.868;4.700;2024-02-26T11:49:46;3.50;;;3.20;;
12554;SDS011;6343;50.868;4.700;2024-02-26T11:52:17;3.50;;;3.20;;
12554;SDS011;6343;50.868;4.700;2024-02-26T11:54:44;5.00;;;3.37;;
12554;SDS011;6343;50.868;4.700;2024-02-26T11:59:50;3.93;;;3.47;;
12554;SDS011;6343;50.868;4.700;2024-02-26T12:03:02;5.40;;;3.70;;
12554;SDS011;6343;50.868;4.700;2024-02-26T12:05:05;3.43;;;3.00;;
12554;SDS011;6343;50.868;4.700;2024-02-26T12:07:34;4.23;;;3.57;;
12554;SDS011;6343;50.868;4.700;2024-02-26T12:12:46;4.20;;;3.40;;
12554;SDS011;6343;50.868;4.700;2024-02-26T12:15:12;5.47;;;3.40;;
12554;SDS011;6343;50.868;4.700;2024-02-26T12:17:40;4.87;;;3.60;;
12554;SDS011;6343;50.868;4.700;2024-02-26T12:20:13;5.53;;;4.00;;
12554;SDS011;6343;50.868;4.700;2024-02-26T12:22:39;4.03;;;3.60;;
12554;SDS011;6343;50.868;4.700;2024-02-26T12:25:08;3.70;;;3.40;;
12554;SDS011;6343;50.868;4.700;2024-02-26T12:27:35;4.23;;;3.57;;
12554;SDS011;6343;50.868;4.700;2024-02-26T12:30:02;3.40;;;3.10;;
12554;SDS011;6343;50.868;4.700;2024-02-26T12:32:28;4.97;;;3.40;;
12554;SDS011;6343;50.868;4.700;2024-02-26T12:34:54;4.77;;;3.70;;
12554;SDS011;6343;50.868;4.700;2024-02-26T12:37:20;4.47;;;3.10;;
12554;SDS011;6343;50.868;4.700;2024-02-26T12:39:46;3.80;;;3.47;;
12554;SDS011;6343;50.868;4.700;2024-02-26T12:42:13;3.20;;;2.90;;
12554;SDS011;6343;50.868;4.700;2024-02-26T12:44:41;3.93;;;3.53;;
12554;SDS011;6343;50.868;4.700;2024-02-26T12:47:07;3.90;;;2.87;;
12554;SDS011;6343;50.868;4.700;2024-02-26T12:49:35;3.73;;;3.33;;
12554;SDS011;6343;50.868;4.700;2024-02-26T12:52:01;4.27;;;3.50;;
12554;SDS011;6343;50.868;4.700;2024-02-26T12:54:28;3.73;;;3.23;;
12554;SDS011;6343;50.868;4.700;2024-02-26T12:56:55;3.53;;;3.23;;
12554;SDS011;6343;50.868;4.700;2024-02-26T12:59:22;5.03;;;2.57;;
12554;SDS011;6343;50.868;4.700;2024-02-26T13:01:48;4.73;;;3.73;;
12554;SDS011;6343;50.868;4.700;2024-02-26T13:04:15;9.03;;;3.87;;
12554;SDS011;6343;50.868;4.700;2024-02-26T13:06:41;3.47;;;3.17;;
12554;SDS011;6343;50.868;4.700;2024-02-26T13:09:08;4.23;;;3.40;;
12554;SDS011;6343;50.868;4.700;2024-02-26T13:11:39;3.73;;;3.27;;
12554;SDS011;6343;50.868;4.700;2024-02-26T13:14:05;3.67;;;3.27;;
12554;SDS011;6343;50.868;4.700;2024-02-26T13:16:32;5.23;;;3.33;;
12554;SDS011;6343;50.868;4.700;2024-02-26T13:19:08;3.97;;;3.53;;
12554;SDS011;6343;50.868;4.700;2024-02-26T13:21:34;3.80;;;3.20;;
12554;SDS011;6343;50.868;4.700;2024-02-26T13:24:00;4.03;;;3.63;;
12554;SDS011;6343;50.868;4.700;2024-02-26T13:26:27;4.10;;;3.70;;
12554;SDS011;6343;50.868;4.700;2024-02-26T13:29:00;6.87;;;3.70;;
12554;SDS011;6343;50.868;4.700;2024-02-26T13:31:26;7.07;;;4.20;;
12554;SDS011;6343;50.868;4.700;2024-02-26T13:33:52;4.53;;;4.13;;
12554;SDS011;6343;50.868;4.700;2024-02-26T13:36:21;5.40;;;4.33;;
12554;SDS011;6343;50.868;4.700;2024-02-26T13:38:53;6.07;;;4.17;;
12554;SDS011;6343;50.868;4.700;2024-02-26T13:41:21;4.80;;;4.40;;
12554;SDS011;6343;50.868;4.700;2024-02-26T13:43:47;5.10;;;4.60;;
12554;SDS011;6343;50.868;4.700;2024-02-26T13:46:14;5.10;;;4.40;;
12554;SDS011;6343;50.868;4.700;2024-02-26T13:48:43;6.00;;;4.70;;
12554;SDS011;6343;50.868;4.700;2024-02-26T13:51:10;6.80;;;4.70;;
12554;SDS011;6343;50.868;4.700;2024-02-26T13:53:36;5.53;;;4.47;;
12554;SDS011;6343;50.868;4.700;2024-02-26T13:56:02;6.07;;;5.10;;
12554;SDS011;6343;50.868;4.700;2024-02-26T13:58:30;6.07;;;4.63;;
12554;SDS011;6343;50.868;4.700;2024-02-26T14:00:56;7.17;;;5.40;;
12554;SDS011;6343;50.868;4.700;2024-02-26T14:03:24;7.00;;;5.13;;
12554;SDS011;6343;50.868;4.700;2024-02-26T14:05:51;7.30;;;6.03;;
12554;SDS011;6343;50.868;4.700;2024-02-26T14:08:17;6.13;;;5.27;;
12554;SDS011;6343;50.868;4.700;2024-02-26T14:10:44;7.37;;;5.27;;
12554;SDS011;6343;50.868;4.700;2024-02-26T14:13:10;6.03;;;5.37;;
12554;SDS011;6343;50.868;4.700;2024-02-26T14:15:36;6.23;;;5.43;;
12554;SDS011;6343;50.868;4.700;2024-02-26T14:18:04;9.00;;;6.90;;
12554;SDS011;6343;50.868;4.700;2024-02-26T14:20:30;6.93;;;5.47;;
12554;SDS011;6343;50.868;4.700;2024-02-26T14:22:56;8.60;;;6.80;;
12554;SDS011;6343;50.868;4.700;2024-02-26T14:25:23;7.83;;;6.70;;
12554;SDS011;6343;50.868;4.700;2024-02-26T14:27:49;6.73;;;5.90;;
12554;SDS011;6343;50.868;4.700;2024-02-26T14:30:15;7.43;;;5.73;;
12554;SDS011;6343;50.868;4.700;2024-02-26T14:32:41;9.07;;;6.17;;
12554;SDS011;6343;50.868;4.700;2024-02-26T14:35:08;7.43;;;5.97;;
12554;SDS011;6343;50.868;4.700;2024-02-26T14:37:35;7.23;;;6.10;;
12554;SDS011;6343;50.868;4.700;2024-02-26T14:40:01;9.30;;;6.23;;
12554;SDS011;6343;50.868;4.700;2024-02-26T14:42:28;7.80;;;6.20;;
12554;SDS011;6343;50.868;4.700;2024-02-26T14:44:54;7.63;;;6.23;;
12554;SDS011;6343;50.868;4.700;2024-02-26T14:47:20;7.80;;;5.97;;
12554;SDS011;6343;50.868;4.700;2024-02-26T14:49:46;6.53;;;5.63;;
12554;SDS011;6343;50.868;4.700;2024-02-26T14:52:13;6.83;;;5.33;;
12554;SDS011;6343;50.868;4.700;2024-02-26T14:54:40;6.23;;;5.03;;
12554;SDS011;6343;50.868;4.700;2024-02-26T14:57:06;7.90;;;5.37;;
12554;SDS011;6343;50.868;4.700;2024-02-26T14:59:33;7.37;;;4.90;;
12554;SDS011;6343;50.868;4.700;2024-02-26T15:02:01;6.43;;;5.10;;